Decoded Metar for LFQA (REIMS in FRANCE) (IATA:N/A) | Meteo·Mobile Aviation Weather
aviador You're here:

LFQA Decoded Metar

REIMS in FRANCE
Report Time2019-08-19 05:00:00
UTC Time2019-08-19 05:32:27
Flight Rules vfr VFR
WindCalm
Visibility9999 m
Phenomena:N/A
Clouds:N/A
Expected CloudBase > 800 ft AGL from Temp-Dew spread
CeilingNone
Temp13°C (ISA -1)
Dew Point11°C (88% RH)
QNH1016 hPa
Density Alt223 ft
Elevation312 ft
Report Wrong Elevation
Raw Report
METAR LFQA 190500Z AUTO 00000KT CAVOK 13/11 Q1016=

Extra information for LFQA:More info

Metar Taf Metar & Taf Last 4 Metars F.Rules Stats Wind Profile Meteogram Temp Stats Airport Information Weather charts Add Link Nearby VenuesMetar ALERT Operation Metar Decoded Social comments